Time;durP1;ratioP1;P1;durP2;ratioP2;P2;SDS_P1;SDS_P2;PMS_P1;PMS_P2;Temp;Humidity;BMP_temperature;BMP_pressure;BME280_temperature;BME280_humidity;BME280_pressure;Samples;Min_cycle;Max_cycle;Signal;HPM_P1;HPM_P2
2021/12/10 00:02:11;;;;;;;3.55;1.63;;;;;;;-0.85;84.77;96067.28;5045464;28;20051;-53
2021/12/10 00:04:40;;;;;;;4.00;1.60;;;;;;;-0.98;85.85;96063.66;5043673;28;20068;-55
2021/12/10 00:07:18;;;;;;;6.32;1.40;;;;;;;-0.98;85.55;96061.00;5045498;28;20674;-54
2021/12/10 00:09:50;;;;;;;5.00;1.58;;;;;;;-0.94;85.36;96053.41;5044678;28;20800;-51
2021/12/10 00:12:25;;;;;;;3.33;1.52;;;;;;;-1.02;85.68;96041.19;5045513;28;20045;-55
2021/12/10 00:14:52;;;;;;;5.75;1.67;;;;;;;-1.13;85.82;96032.03;5047051;28;20056;-53
2021/12/10 00:17:21;;;;;;;3.25;1.55;;;;;;;-1.16;86.53;96023.66;5045766;28;20040;-57
2021/12/10 00:19:52;;;;;;;5.32;1.77;;;;;;;-1.14;86.66;96021.59;5045445;28;20483;-57
2021/12/10 00:22:30;;;;;;;;;;;;;;;-1.05;86.96;96025.66;5043576;28;20049;-56
2021/12/10 00:24:56;;;;;;;6.30;2.03;;;;;;;-1.18;85.98;96026.53;5045354;28;19921;-55
2021/12/10 00:27:28;;;;;;;6.55;2.00;;;;;;;-1.32;86.29;96021.25;5045533;28;20037;-56
2021/12/10 00:30:05;;;;;;;5.20;1.67;;;;;;;-1.22;86.46;96018.16;5046949;28;20496;-56
2021/12/10 00:32:38;;;;;;;4.53;1.50;;;;;;;-1.34;85.93;96012.69;5055576;28;20044;-57
2021/12/10 00:35:13;;;;;;;5.13;1.48;;;;;;;-1.39;86.85;95998.41;5045705;28;20164;-57
2021/12/10 00:37:40;;;;;;;5.05;1.88;;;;;;;-1.41;87.07;95995.16;5054896;28;20667;-56
2021/12/10 00:40:09;;;;;;;4.90;1.67;;;;;;;-1.28;87.02;95994.28;5045211;28;20037;-55
2021/12/10 00:42:37;;;;;;;5.22;1.60;;;;;;;-1.35;85.95;95991.66;5044807;28;20037;-56
2021/12/10 00:45:10;;;;;;;4.50;1.50;;;;;;;-1.48;86.90;95980.06;5045242;28;20041;-55
2021/12/10 00:47:37;;;;;;;2.88;1.55;;;;;;;-1.53;86.68;95985.19;5044681;28;20040;-56
2021/12/10 00:50:08;;;;;;;6.28;1.55;;;;;;;-1.53;86.99;95984.34;5044726;28;20118;-55
2021/12/10 00:52:35;;;;;;;3.30;1.80;;;;;;;-1.51;87.60;95977.00;5044297;28;20041;-56
2021/12/10 00:55:05;;;;;;;3.78;1.52;;;;;;;-1.72;86.59;95976.25;5045349;28;20041;-56
2021/12/10 00:57:32;;;;;;;3.70;1.40;;;;;;;-2.02;88.00;95969.59;5040040;28;20642;-54
2021/12/10 00:59:58;;;;;;;7.25;1.60;;;;;;;-2.11;88.82;95965.50;5029869;28;20037;-55
2021/12/10 01:02:25;;;;;;;3.03;1.30;;;;;;;-2.23;89.05;95958.19;5048966;28;20052;-53
2021/12/10 01:04:56;;;;;;;8.88;1.55;;;;;;;-2.19;89.21;95960.41;5044854;28;20587;-54
2021/12/10 01:07:29;;;;;;;8.32;1.67;;;;;;;-2.25;88.92;95962.06;5043949;28;20527;-56
2021/12/10 01:09:58;;;;;;;3.55;1.45;;;;;;;-2.37;89.12;95952.06;5043104;28;20135;-56
2021/12/10 01:12:27;;;;;;;5.78;1.33;;;;;;;-2.47;88.57;95948.19;5036086;28;20107;-57
2021/12/10 01:26:24;;;;;;;5.93;1.67;;;;;;;-2.64;91.39;95914.97;5044230;28;20041;-56
2021/12/10 01:28:58;;;;;;;5.38;1.92;;;;;;;-2.77;90.39;95917.59;5043711;28;20037;-54
2021/12/10 01:31:25;;;;;;;7.78;1.75;;;;;;;-2.57;91.07;95914.16;5043670;28;20058;-55
2021/12/10 01:33:53;;;;;;;7.75;1.90;;;;;;;-2.44;90.10;95914.13;5048522;28;20041;-54
2021/12/10 01:36:21;;;;;;;6.32;1.83;;;;;;;-2.29;88.82;95900.66;5056687;28;20530;-57
2021/12/10 01:38:51;;;;;;;2.17;1.10;;;;;;;-2.07;89.89;95886.34;5048734;28;20053;-54
2021/12/10 01:41:19;;;;;;;3.25;1.48;;;;;;;-2.31;87.21;95881.50;5047088;28;20455;-56
2021/12/10 01:43:51;;;;;;;5.20;1.42;;;;;;;-2.52;88.37;95879.88;5048445;28;20520;-55
2021/12/10 01:46:25;;;;;;;2.50;1.23;;;;;;;-2.59;89.17;95871.16;5046367;28;20037;-55
2021/12/10 01:48:56;;;;;;;6.18;1.48;;;;;;;-2.59;89.51;95866.63;5047867;28;20256;-53
2021/12/10 01:51:27;;;;;;;6.43;1.13;;;;;;;-2.52;89.78;95869.28;5047707;28;20713;-54
2021/12/10 01:53:55;;;;;;;7.05;1.60;;;;;;;-2.66;88.97;95863.19;5048525;28;20088;-56
2021/12/10 01:56:27;;;;;;;3.10;1.55;;;;;;;-2.84;89.11;95866.47;5048127;28;20086;-57
2021/12/10 01:58:55;;;;;;;3.45;1.45;;;;;;;-2.96;89.43;95856.47;5047178;28;20087;-57
2021/12/10 02:01:32;;;;;;;5.93;1.63;;;;;;;-2.96;90.44;95845.88;5049541;28;20400;-56
2021/12/10 02:04:03;;;;;;;6.90;1.48;;;;;;;-2.90;90.23;95841.59;5031645;28;20040;-57
2021/12/10 02:06:30;;;;;;;7.20;1.45;;;;;;;-3.00;90.44;95839.34;5047583;28;20741;-57
2021/12/10 02:08:56;;;;;;;4.95;1.67;;;;;;;-3.01;90.60;95835.09;5040843;28;20515;-56
2021/12/10 02:11:23;;;;;;;3.13;1.40;;;;;;;-2.88;90.58;95836.91;5048373;28;20052;-56
2021/12/10 02:13:50;;;;;;;6.20;1.60;;;;;;;-2.83;90.27;95836.28;5049233;28;20485;-56
2021/12/10 02:16:17;;;;;;;5.00;1.45;;;;;;;-2.67;nan;95827.09;5052974;28;20041;-57
2021/12/10 02:18:44;;;;;;;4.13;1.48;;;;;;;-2.64;89.43;95816.94;5046975;28;20700;-57
2021/12/10 02:21:10;;;;;;;5.20;1.92;;;;;;;-2.37;89.20;95816.03;5047379;28;20055;-54
2021/12/10 02:23:42;;;;;;;6.28;1.73;;;;;;;-2.43;89.22;95814.22;5048086;28;20646;-57
2021/12/10 02:26:13;;;;;;;5.15;1.10;;;;;;;-2.38;88.47;95803.81;5045938;28;20041;-56
2021/12/10 02:28:41;;;;;;;5.30;1.73;;;;;;;-2.26;88.65;95794.19;5047314;28;20033;-57
2021/12/10 02:31:13;;;;;;;5.13;1.48;;;;;;;-2.37;88.27;95779.75;5043655;28;20052;-52
2021/12/10 02:33:40;;;;;;;3.15;1.30;;;;;;;-2.15;88.85;95768.03;5043261;28;20515;-55
2021/12/10 02:36:11;;;;;;;3.10;1.27;;;;;;;-2.32;86.94;95773.00;5048409;28;20080;-56
2021/12/10 02:38:41;;;;;;;5.30;1.50;;;;;;;-2.49;88.73;95773.47;5045692;28;20048;-56
2021/12/10 02:41:08;;;;;;;8.90;1.33;;;;;;;-2.60;88.54;95774.91;5046664;28;20037;-56
2021/12/10 02:43:36;;;;;;;2.95;1.10;;;;;;;-2.72;88.46;95766.81;5046778;28;20102;-57
2021/12/10 02:46:03;;;;;;;3.72;1.35;;;;;;;-2.80;89.54;95762.50;5035127;28;20060;-57
2021/12/10 02:48:31;;;;;;;5.45;1.42;;;;;;;-2.74;89.44;95771.47;5046906;28;20041;-55
2021/12/10 02:51:00;;;;;;;4.93;1.33;;;;;;;-2.82;89.89;95764.56;5046735;28;20056;-54
2021/12/10 02:53:29;;;;;;;3.92;1.23;;;;;;;-3.03;88.91;95757.66;5054331;28;20079;-54
2021/12/10 02:55:57;;;;;;;5.43;1.38;;;;;;;-2.99;88.86;95745.63;5047815;28;20049;-56
2021/12/10 02:58:24;;;;;;;3.78;1.25;;;;;;;-2.82;90.82;95735.44;5044936;28;20095;-57
2021/12/10 03:01:00;;;;;;;4.70;1.20;;;;;;;-3.04;88.62;95735.69;5046547;28;20041;-56
2021/12/10 03:03:27;;;;;;;4.57;1.17;;;;;;;-3.27;89.57;95728.16;5050917;28;20554;-55
2021/12/10 03:05:54;;;;;;;3.28;1.23;;;;;;;-3.35;90.66;95729.19;5046845;28;20666;-57
2021/12/10 03:08:21;;;;;;;3.42;1.08;;;;;;;-3.28;90.45;95719.41;5046790;28;20682;-57
2021/12/10 03:10:47;;;;;;;5.43;1.73;;;;;;;-3.30;90.57;95716.16;5045420;28;20555;-56
2021/12/10 03:13:14;;;;;;;4.63;1.15;;;;;;;-3.23;90.03;95710.03;5046409;28;20415;-57
2021/12/10 03:15:43;;;;;;;7.15;1.58;;;;;;;-3.02;90.23;95722.22;5037381;28;20096;-57
2021/12/10 03:18:13;;;;;;;5.45;1.55;;;;;;;-2.66;89.08;95714.81;5042151;28;20047;-56
2021/12/10 03:20:40;;;;;;;3.33;1.50;;;;;;;-2.53;88.45;95708.63;5046979;28;20060;-57
2021/12/10 03:23:07;;;;;;;7.22;1.70;;;;;;;-2.61;88.07;95707.03;5044031;28;20041;-57
2021/12/10 03:25:34;;;;;;;5.80;1.25;;;;;;;-2.62;88.47;95702.75;5046633;28;20091;-57
2021/12/10 03:28:01;;;;;;;8.25;1.90;;;;;;;-2.68;88.28;95698.31;5045430;28;20049;-57
2021/12/10 03:30:31;;;;;;;3.65;1.65;;;;;;;-2.94;87.53;95698.19;5045834;28;20045;-56
2021/12/10 03:32:59;;;;;;;8.68;2.00;;;;;;;-2.85;88.92;95688.16;5044874;28;20744;-57
2021/12/10 03:35:35;;;;;;;8.95;1.55;;;;;;;-2.98;87.80;95677.59;5047123;28;20063;-57
2021/12/10 03:38:05;;;;;;;4.90;1.67;;;;;;;-2.93;88.61;95673.31;5049188;28;20463;-57
2021/12/10 03:40:32;;;;;;;7.35;1.70;;;;;;;-2.87;88.77;95658.44;5045691;28;20033;-57
2021/12/10 03:43:01;;;;;;;8.93;2.00;;;;;;;-2.68;88.42;95651.44;5046257;28;20496;-57
2021/12/10 03:45:32;;;;;;;6.43;1.90;;;;;;;-2.49;88.92;95641.75;5050207;28;20044;-56
2021/12/10 03:48:00;;;;;;;8.77;2.42;;;;;;;-2.22;88.36;95631.00;5048621;28;20037;-55
2021/12/10 03:50:30;;;;;;;10.10;2.63;;;;;;;-2.54;87.59;95628.31;5042556;28;20049;-56
2021/12/10 03:52:58;;;;;;;4.57;2.00;;;;;;;-2.48;87.49;95624.00;5033438;28;20098;-56
2021/12/10 03:55:26;;;;;;;7.20;2.67;;;;;;;-2.36;87.04;95605.59;5044397;28;20053;-56
2021/12/10 03:57:55;;;;;;;7.90;2.00;;;;;;;-2.35;87.65;95607.22;5045675;28;20045;-55
2021/12/10 04:00:26;;;;;;;7.65;1.50;;;;;;;-2.42;86.98;95603.78;5045373;28;20493;-55
2021/12/10 04:02:53;;;;;;;5.93;1.58;;;;;;;-2.55;86.48;95599.41;5053660;28;20107;-55
2021/12/10 04:05:21;;;;;;;5.05;1.55;;;;;;;-2.79;87.35;95596.44;5045530;28;20041;-53
2021/12/10 04:07:48;;;;;;;3.63;1.55;;;;;;;-3.05;87.42;95595.53;5045380;28;20044;-56
2021/12/10 04:10:17;;;;;;;6.70;1.92;;;;;;;-3.19;87.94;95600.06;5045677;28;20051;-58
2021/12/10 04:12:44;;;;;;;8.20;1.65;;;;;;;-3.35;88.50;95586.28;5045371;28;20059;-55
2021/12/10 04:15:12;;;;;;;7.07;1.85;;;;;;;-3.35;89.05;95594.22;5050465;28;20524;-55
2021/12/10 04:17:39;;;;;;;4.13;1.75;;;;;;;-3.17;89.42;95598.03;5045645;28;20041;-57
2021/12/10 04:20:07;;;;;;;3.50;1.65;;;;;;;-3.29;88.36;95603.94;5045355;28;20048;-57
2021/12/10 04:22:34;;;;;;;4.38;1.98;;;;;;;-3.17;89.12;95598.03;5039736;28;20041;-57
2021/12/10 04:25:06;;;;;;;5.65;1.80;;;;;;;-3.30;88.85;95596.22;5045432;28;20607;-57
2021/12/10 04:27:33;;;;;;;4.72;1.98;;;;;;;-3.22;89.16;95603.09;5043138;28;20734;-57
2021/12/10 04:30:00;;;;;;;5.50;1.88;;;;;;;-3.20;88.03;95601.09;5044625;28;20037;-57
2021/12/10 04:32:27;;;;;;;7.95;1.80;;;;;;;-3.51;88.43;95597.28;5045021;28;20797;-57
2021/12/10 04:34:55;;;;;;;6.40;2.35;;;;;;;-3.49;88.93;95593.41;5043908;28;20036;-57
2021/12/10 04:37:22;;;;;;;5.70;2.20;;;;;;;-3.62;89.20;95586.31;5047235;28;20040;-57
2021/12/10 04:39:49;;;;;;;4.88;1.95;;;;;;;-3.40;90.53;95578.94;5043636;28;20049;-57
2021/12/10 04:42:19;;;;;;;5.43;1.88;;;;;;;-3.39;89.57;95577.13;5044932;28;20044;-57
2021/12/10 04:44:47;;;;;;;5.43;2.03;;;;;;;-3.33;90.13;95570.16;5043577;28;20514;-55
2021/12/10 04:47:14;;;;;;;5.70;2.13;;;;;;;-3.31;88.97;95568.91;5054282;28;20091;-57
2021/12/10 04:49:40;;;;;;;8.93;2.17;;;;;;;-3.41;88.69;95564.09;5045370;28;20546;-57
2021/12/10 04:52:07;;;;;;;6.47;1.83;;;;;;;-3.61;87.83;95563.31;5044680;28;20041;-57
2021/12/10 04:54:38;;;;;;;5.70;2.10;;;;;;;-3.85;89.02;95562.94;5045153;28;20068;-57
2021/12/10 04:57:05;;;;;;;6.30;1.77;;;;;;;-3.90;89.85;95557.47;5044910;28;20773;-56
2021/12/10 04:59:34;;;;;;;4.68;1.95;;;;;;;-3.92;90.21;95557.66;5040954;28;20052;-55
2021/12/10 05:02:04;;;;;;;5.32;2.35;;;;;;;-3.92;90.00;95539.97;5045034;28;20052;-56
2021/12/10 05:04:31;;;;;;;3.75;1.60;;;;;;;-4.18;89.74;95540.78;5044222;28;20049;-54
2021/12/10 05:06:59;;;;;;;4.60;1.80;;;;;;;-4.24;90.32;95539.78;5038193;28;20037;-53
2021/12/10 05:09:26;;;;;;;5.13;1.90;;;;;;;-4.26;90.00;95530.44;5051879;28;20041;-53
2021/12/10 05:11:56;;;;;;;4.38;1.73;;;;;;;-4.32;90.14;95527.59;5050421;28;20041;-54
2021/12/10 05:14:24;;;;;;;6.05;2.33;;;;;;;-4.26;90.90;95533.06;5043421;28;20053;-54
2021/12/10 05:16:54;;;;;;;3.55;1.77;;;;;;;-4.36;90.56;95529.00;5059846;28;20044;-53
2021/12/10 05:19:23;;;;;;;8.82;2.05;;;;;;;-4.43;90.80;95517.63;5048814;28;20033;-54
2021/12/10 05:21:50;;;;;;;5.97;1.98;;;;;;;-4.52;90.30;95519.66;5046830;28;20577;-56
2021/12/10 05:24:18;;;;;;;7.38;1.85;;;;;;;-4.53;90.71;95518.03;5047470;28;20060;-56
2021/12/10 05:26:45;;;;;;;7.70;2.63;;;;;;;-4.52;90.63;95508.28;5048547;28;20045;-56
2021/12/10 05:29:12;;;;;;;9.32;3.33;;;;;;;-4.50;91.17;95508.91;5054754;28;20487;-55
2021/12/10 05:31:43;;;;;;;8.63;3.08;;;;;;;-4.51;91.49;95512.53;5044785;28;20049;-55
2021/12/10 05:34:14;;;;;;;5.57;2.67;;;;;;;-4.57;90.51;95511.53;5048062;28;20504;-54
2021/12/10 05:36:40;;;;;;;5.25;2.13;;;;;;;-4.52;90.74;95503.00;5058005;28;20040;-55
2021/12/10 05:39:09;;;;;;;5.10;2.30;;;;;;;-4.37;91.01;95502.78;5047752;28;20487;-54
2021/12/10 05:41:36;;;;;;;10.88;3.92;;;;;;;-4.21;91.01;95497.09;5047867;28;20060;-54
2021/12/10 05:44:04;;;;;;;8.95;3.60;;;;;;;-4.20;90.81;95495.28;5047843;28;20802;-55
2021/12/10 05:46:32;;;;;;;8.27;2.63;;;;;;;-4.24;90.32;95494.84;5049949;28;20499;-55
2021/12/10 05:48:59;;;;;;;8.77;2.95;;;;;;;-4.25;89.94;95489.75;5047616;28;20045;-55
2021/12/10 05:51:27;;;;;;;8.93;3.85;;;;;;;-4.28;91.00;95479.63;5058288;28;20418;-58
2021/12/10 05:53:54;;;;;;;7.28;3.78;;;;;;;-4.18;90.80;95472.06;5048700;28;20448;-55
2021/12/10 05:56:20;;;;;;;11.70;4.18;;;;;;;-4.26;89.69;95469.66;5047641;28;20044;-56
2021/12/10 05:58:47;;;;;;;9.68;4.28;;;;;;;-4.07;91.00;95452.13;5044490;28;20041;-55
2021/12/10 06:01:17;;;;;;;10.85;4.97;;;;;;;-3.57;89.81;95443.63;5048943;28;20056;-55
2021/12/10 06:03:51;;;;;;;13.52;4.68;;;;;;;-3.34;88.40;95444.97;5057854;28;20037;-55
2021/12/10 06:06:21;;;;;;;9.57;4.13;;;;;;;-3.23;88.27;95440.84;5047603;28;20051;-54
2021/12/10 06:08:49;;;;;;;15.32;4.82;;;;;;;-3.18;88.69;95429.59;5046805;28;20052;-54
2021/12/10 06:11:17;;;;;;;10.43;4.43;;;;;;;-3.11;87.46;95437.50;5046027;28;20041;-55
2021/12/10 06:13:45;;;;;;;9.20;4.70;;;;;;;-3.14;87.14;95436.09;5048018;28;20048;-56
2021/12/10 06:16:13;;;;;;;13.80;4.88;;;;;;;-3.41;87.10;95431.78;5046617;28;20044;-55
2021/12/10 06:18:40;;;;;;;6.78;4.05;;;;;;;-3.58;88.09;95435.94;5046660;28;20603;-55
2021/12/10 06:21:07;;;;;;;10.07;4.20;;;;;;;-3.57;89.11;95433.03;5043889;28;20056;-55
2021/12/10 06:23:34;;;;;;;8.07;3.97;;;;;;;-3.54;89.12;95421.25;5043451;28;20037;-55
2021/12/10 06:26:03;;;;;;;11.45;5.35;;;;;;;-3.45;89.50;95417.34;5047341;28;20127;-60
2021/12/10 06:28:35;;;;;;;11.75;4.18;;;;;;;-3.37;88.55;95407.50;5047122;28;20048;-59
2021/12/10 06:31:04;;;;;;;11.93;4.70;;;;;;;-3.15;89.11;95405.34;5044032;28;20045;-59
2021/12/10 06:33:31;;;;;;;6.60;3.50;;;;;;;-3.11;87.36;95390.66;5053980;28;20040;-59
2021/12/10 06:36:03;;;;;;;9.80;4.60;;;;;;;-3.14;88.03;95383.97;5052421;28;20039;-58
2021/12/10 06:38:30;;;;;;;10.65;4.38;;;;;;;-3.08;88.05;95378.81;5050458;28;20049;-58
2021/12/10 06:40:57;;;;;;;10.98;4.35;;;;;;;-3.09;88.01;95371.91;5042478;28;20041;-58
2021/12/10 06:43:24;;;;;;;10.38;4.68;;;;;;;-3.21;87.58;95369.16;5047375;28;20049;-59
2021/12/10 06:45:54;;;;;;;12.70;7.38;;;;;;;-3.26;88.31;95356.53;5041536;28;20048;-59
2021/12/10 06:48:23;;;;;;;14.07;7.78;;;;;;;-3.21;88.64;95340.03;5044978;28;20107;-60
2021/12/10 06:50:56;;;;;;;17.20;7.25;;;;;;;-3.20;88.55;95347.78;5041622;28;20419;-60
2021/12/10 06:53:25;;;;;;;13.40;6.00;;;;;;;-3.18;88.59;95343.06;5046604;28;20041;-59
2021/12/10 06:55:52;;;;;;;16.60;6.60;;;;;;;-3.09;87.75;95337.50;5039837;28;20049;-59
2021/12/10 06:58:22;;;;;;;13.15;6.28;;;;;;;-3.09;87.88;95334.84;5041274;28;20057;-59
2021/12/10 07:00:56;;;;;;;19.23;7.03;;;;;;;-3.09;87.31;95334.84;5037802;28;20045;-60
2021/12/10 07:03:26;;;;;;;12.30;5.43;;;;;;;-3.02;88.35;95331.13;5043950;28;20080;-61
2021/12/10 07:05:55;;;;;;;12.77;5.80;;;;;;;-3.48;86.72;95333.06;5041632;28;20045;-61
2021/12/10 07:08:24;;;;;;;12.95;5.80;;;;;;;-3.59;88.52;95339.88;5045420;28;20061;-61
2021/12/10 07:10:51;;;;;;;11.25;5.25;;;;;;;-3.59;88.79;95334.56;5046041;28;20056;-61
2021/12/10 07:13:18;;;;;;;14.20;6.22;;;;;;;-3.61;88.43;95336.59;5046959;28;20048;-61
2021/12/10 07:15:48;;;;;;;10.98;5.43;;;;;;;-3.42;88.76;95326.91;5039582;28;20084;-62
2021/12/10 07:18:18;;;;;;;9.45;5.57;;;;;;;-3.79;88.03;95327.53;5039035;28;20059;-61
2021/12/10 07:20:47;;;;;;;12.25;6.32;;;;;;;-3.83;89.92;95329.00;5037097;28;20052;-60
2021/12/10 07:23:14;;;;;;;10.48;6.18;;;;;;;-3.98;89.43;95326.63;5044406;28;20045;-64
2021/12/10 07:25:41;;;;;;;11.88;6.03;;;;;;;-4.06;89.52;95326.84;5026730;28;20045;-66
2021/12/10 07:28:08;;;;;;;12.70;6.75;;;;;;;-3.95;89.71;95322.75;5039172;28;20053;-66
2021/12/10 07:30:35;;;;;;;12.95;5.57;;;;;;;-3.89;89.31;95326.38;5041278;28;20034;-66
2021/12/10 07:33:06;;;;;;;13.15;5.03;;;;;;;-3.99;89.30;95316.28;5043914;28;20073;-65
2021/12/10 07:35:33;;;;;;;15.88;5.40;;;;;;;-3.93;89.68;95304.84;5039839;28;20443;-65
2021/12/10 07:37:59;;;;;;;14.45;5.07;;;;;;;-3.69;89.26;95302.50;5046470;28;20045;-65
2021/12/10 07:40:29;;;;;;;9.25;4.60;;;;;;;-3.56;89.02;95291.00;5042010;28;20037;-65
2021/12/10 07:42:57;;;;;;;10.63;4.93;;;;;;;-3.81;87.92;95297.88;5045571;28;20041;-64
2021/12/10 07:45:25;;;;;;;9.60;4.60;;;;;;;-3.67;88.98;95292.50;5050847;28;20530;-65
2021/12/10 07:47:54;;;;;;;13.95;5.50;;;;;;;-3.62;89.16;95295.31;5042905;28;20045;-67
2021/12/10 07:50:26;;;;;;;10.32;5.45;;;;;;;-3.82;88.43;95301.53;5031827;28;20053;-64
2021/12/10 07:52:55;;;;;;;8.57;4.88;;;;;;;-3.92;89.02;95296.72;5046118;28;20040;-67
2021/12/10 07:55:31;;;;;;;10.85;4.65;;;;;;;-3.87;89.44;95296.06;5047351;28;20041;-67
2021/12/10 07:57:59;;;;;;;14.45;5.82;;;;;;;-3.69;90.46;95295.34;5046095;28;20497;-66
2021/12/10 08:00:29;;;;;;;13.85;5.53;;;;;;;-3.44;89.86;95299.06;5046023;28;20033;-64
2021/12/10 08:02:56;;;;;;;11.07;6.32;;;;;;;-3.38;89.33;95300.84;5048578;28;20043;-63
2021/12/10 08:05:23;;;;;;;12.90;5.97;;;;;;;-3.15;88.96;95305.56;5044257;28;20123;-62
2021/12/10 08:07:52;;;;;;;11.00;6.07;;;;;;;-2.90;87.25;95303.94;5040578;28;20508;-68
2021/12/10 08:10:19;;;;;;;12.20;6.25;;;;;;;-2.77;85.60;95308.28;5045550;28;20547;-61
2021/12/10 08:12:46;;;;;;;9.80;4.55;;;;;;;-3.20;86.55;95301.94;5045806;28;20678;-67
2021/12/10 08:15:13;;;;;;;15.55;5.88;;;;;;;-3.34;87.84;95296.75;5037340;28;20052;-59
2021/12/10 08:17:42;;;;;;;11.65;5.68;;;;;;;-3.43;87.95;95298.03;5026078;28;20049;-59
2021/12/10 08:20:12;;;;;;;9.93;5.80;;;;;;;-3.48;88.61;95295.22;5039980;28;20036;-59
2021/12/10 08:22:40;;;;;;;10.30;4.75;;;;;;;-3.41;88.58;95290.69;5040958;28;20045;-59
2021/12/10 08:25:07;;;;;;;12.02;6.93;;;;;;;-3.15;88.17;95294.97;5042616;28;20049;-60
2021/12/10 08:27:38;;;;;;;16.13;6.57;;;;;;;-3.00;87.66;95296.47;5036077;28;20519;-60
2021/12/10 08:30:07;;;;;;;10.95;5.25;;;;;;;-2.91;87.27;95292.50;5048328;28;20037;-64
2021/12/10 08:32:35;;;;;;;21.02;6.53;;;;;;;-2.59;86.43;95283.66;5043737;28;20546;-64
2021/12/10 08:35:04;;;;;;;12.57;5.72;;;;;;;-2.47;85.59;95277.63;5036783;28;20053;-61
2021/12/10 08:37:31;;;;;;;12.57;5.50;;;;;;;-2.39;85.37;95275.47;5043313;28;20045;-60
2021/12/10 08:40:04;;;;;;;11.93;5.38;;;;;;;-2.06;86.24;95273.47;5041527;28;20059;-64
2021/12/10 08:42:31;;;;;;;11.73;4.40;;;;;;;-2.04;83.52;95275.88;5041741;28;20465;-63
2021/12/10 08:44:58;;;;;;;9.23;4.20;;;;;;;-2.01;83.67;95273.63;5042110;28;20056;-64
2021/12/10 08:47:24;;;;;;;10.50;4.75;;;;;;;-1.94;83.37;95267.41;5041036;28;20044;-63
2021/12/10 08:49:51;;;;;;;11.15;4.60;;;;;;;-1.81;82.72;95271.72;5040881;28;20048;-64
2021/12/10 08:52:19;;;;;;;8.18;3.88;;;;;;;-1.70;82.81;95265.63;5038706;28;20053;-63
2021/12/10 08:54:46;;;;;;;7.82;3.20;;;;;;;-1.59;81.91;95266.69;5042363;28;20040;-60
2021/12/10 08:57:13;;;;;;;7.68;3.45;;;;;;;-1.52;81.46;95271.94;5038858;28;20053;-62
2021/12/10 08:59:40;;;;;;;10.25;3.65;;;;;;;-1.52;81.60;95259.47;5042187;28;20041;-62
2021/12/10 09:02:11;;;;;;;8.10;3.75;;;;;;;-1.48;82.35;95259.81;5041872;28;20041;-62
2021/12/10 09:04:39;;;;;;;8.23;4.53;;;;;;;-1.40;81.82;95259.47;5052774;28;20045;-62
2021/12/10 09:07:10;;;;;;;8.80;4.05;;;;;;;-1.36;81.12;95246.56;5039363;28;20108;-62
2021/12/10 09:09:40;;;;;;;11.25;4.38;;;;;;;-1.33;79.96;95243.47;5041026;28;20041;-62
2021/12/10 09:12:12;;;;;;;9.02;4.00;;;;;;;-1.21;80.48;95243.47;5042496;28;20496;-58
2021/12/10 09:14:45;;;;;;;6.20;3.47;;;;;;;-1.08;80.50;95245.91;5047418;28;20041;-64
2021/12/10 09:17:16;;;;;;;7.75;3.47;;;;;;;-1.03;79.03;95239.91;5044424;28;20056;-60
2021/12/10 09:19:43;;;;;;;7.05;3.67;;;;;;;-0.99;79.10;95243.69;5044320;28;20048;-60
2021/12/10 09:22:10;;;;;;;7.93;3.13;;;;;;;-0.93;79.25;95236.66;5044717;28;20041;-64
2021/12/10 09:24:39;;;;;;;6.57;3.17;;;;;;;-0.76;78.54;95234.13;5043929;28;20080;-60
2021/12/10 09:27:07;;;;;;;6.10;2.45;;;;;;;-0.73;78.20;95231.00;5041412;28;20112;-64
2021/12/10 09:29:37;;;;;;;8.18;3.15;;;;;;;-0.69;78.24;95234.00;5045851;28;20033;-63
2021/12/10 09:32:06;;;;;;;9.40;2.97;;;;;;;-0.65;77.47;95216.53;5052591;28;20040;-56
2021/12/10 09:34:32;;;;;;;8.05;2.97;;;;;;;-0.57;77.35;95218.81;5044340;28;20072;-58
2021/12/10 09:36:59;;;;;;;9.23;4.45;;;;;;;-0.42;76.21;95206.88;5038962;28;20398;-58
2021/12/10 09:39:28;;;;;;;8.55;3.85;;;;;;;-0.37;76.18;95206.19;5042140;28;20056;-63
2021/12/10 09:41:55;;;;;;;11.52;6.75;;;;;;;-0.46;76.63;95203.06;5041304;28;20045;-66
2021/12/10 09:44:23;;;;;;;7.85;4.05;;;;;;;-0.41;75.62;95196.00;5042913;28;20103;-60
2021/12/10 09:46:51;;;;;;;7.75;3.33;;;;;;;-0.27;76.10;95196.56;5042487;28;20420;-61
2021/12/10 09:49:23;;;;;;;4.75;2.80;;;;;;;-0.23;75.74;95188.09;5031238;28;20051;-59
2021/12/10 09:51:51;;;;;;;;;;;;;;;-0.30;75.50;95182.91;5042153;28;20052;-62
2021/12/10 09:54:21;;;;;;;7.20;3.58;;;;;;;-0.22;75.52;95190.50;5043438;28;19932;-59
2021/12/10 09:56:55;;;;;;;16.75;9.93;;;;;;;-0.22;74.89;95179.88;5044567;28;20047;-65
2021/12/10 09:59:22;;;;;;;14.90;7.68;;;;;;;-0.20;75.26;95174.31;5046054;28;20568;-61
2021/12/10 10:01:52;;;;;;;13.40;6.10;;;;;;;-0.01;75.40;95173.06;5048256;28;20099;-62
2021/12/10 10:04:22;;;;;;;10.95;6.53;;;;;;;-0.07;73.82;95170.56;5037548;28;20055;-62
2021/12/10 10:06:55;;;;;;;6.78;3.17;;;;;;;-0.05;74.27;95163.13;5030580;28;20103;-58
2021/12/10 10:09:23;;;;;;;8.85;4.35;;;;;;;0.12;74.88;95158.66;5034228;28;20525;-62
2021/12/10 10:11:58;;;;;;;6.22;2.55;;;;;;;0.08;73.34;95157.50;5046618;28;20527;-63
2021/12/10 10:14:25;;;;;;;8.35;4.00;;;;;;;-0.01;72.89;95149.13;5050990;28;20516;-59
2021/12/10 10:16:52;;;;;;;9.52;4.38;;;;;;;0.06;72.82;95150.81;5046947;28;20037;-61
2021/12/10 10:19:20;;;;;;;4.95;2.10;;;;;;;0.19;71.92;95147.06;5047558;28;20041;-63
2021/12/10 10:21:50;;;;;;;7.00;2.83;;;;;;;0.19;71.17;95147.06;5047993;28;20039;-59
2021/12/10 10:24:18;;;;;;;9.82;5.20;;;;;;;0.25;71.63;95133.59;5048268;28;20041;-62
2021/12/10 10:27:11;;;;;;;6.30;3.05;;;;;;;0.32;70.51;95122.78;5046848;28;20068;-62
2021/12/10 10:29:42;;;;;;;5.72;2.38;;;;;;;0.31;69.92;95125.69;5036974;28;20053;-64
2021/12/10 10:32:16;;;;;;;7.47;3.72;;;;;;;0.44;69.12;95127.22;5049343;28;20079;-61
2021/12/10 10:34:58;;;;;;;9.88;4.63;;;;;;;0.51;70.44;95110.03;5042113;28;20068;-62
2021/12/10 10:37:24;;;;;;;7.55;2.85;;;;;;;0.52;69.99;95106.31;5045572;28;20045;-61
2021/12/10 10:39:51;;;;;;;8.15;3.30;;;;;;;0.74;70.41;95105.53;5044124;28;20045;-62
2021/12/10 10:42:24;;;;;;;6.25;3.22;;;;;;;0.92;69.31;95105.50;5041881;28;20822;-62
2021/12/10 10:44:57;;;;;;;7.78;2.72;;;;;;;0.96;67.56;95106.63;5052129;28;20040;-62
2021/12/10 10:47:24;;;;;;;9.23;3.90;;;;;;;1.04;67.43;95100.88;5043014;28;20091;-63
2021/12/10 10:50:17;;;;;;;11.90;5.40;;;;;;;0.75;67.02;95095.69;5044853;28;20693;-58
2021/12/10 10:52:53;;;;;;;3.50;1.60;;;;;;;0.93;66.76;95094.63;5035652;28;20523;-60
2021/12/10 10:55:29;;;;;;;6.38;2.45;;;;;;;1.01;67.43;95096.03;5047120;28;20136;-62
2021/12/10 10:57:58;;;;;;;8.43;2.95;;;;;;;0.88;66.53;95086.53;5044182;28;20040;-58
2021/12/10 11:00:32;;;;;;;3.75;1.83;;;;;;;0.99;67.06;95087.50;5042726;28;20428;-58
2021/12/10 11:03:09;;;;;;;4.22;1.90;;;;;;;1.24;67.37;95088.84;5047203;28;20069;-58
2021/12/10 11:05:46;;;;;;;7.88;2.78;;;;;;;1.31;67.65;95076.13;5039967;28;20052;-57
2021/12/10 11:08:13;;;;;;;6.88;1.80;;;;;;;1.33;67.44;95074.03;5043843;28;20574;-58
2021/12/10 11:10:43;;;;;;;6.75;2.00;;;;;;;1.16;66.59;95074.09;5038968;28;20041;-58
2021/12/10 11:13:14;;;;;;;7.00;1.80;;;;;;;1.26;65.98;95071.53;5040948;28;20045;-57
2021/12/10 11:16:17;;;;;;;5.67;1.17;;;;;;;1.32;67.21;95075.06;5043699;28;20047;-56
2021/12/10 11:18:52;;;;;;;6.43;2.03;;;;;;;1.11;67.85;95076.69;5000648;28;20061;-59
2021/12/10 11:21:42;;;;;;;2.60;1.63;;;;;;;0.89;67.65;95082.84;5042237;28;20041;-59
2021/12/10 11:24:23;;;;;;;3.55;1.48;;;;;;;0.87;68.74;95082.25;5052916;28;20048;-65
2021/12/10 11:27:00;;;;;;;3.65;1.40;;;;;;;0.83;68.70;95083.81;5043409;28;20697;-60
2021/12/10 11:29:51;;;;;;;1.98;0.80;;;;;;;0.76;69.83;95087.47;5042866;28;20072;-60
2021/12/10 11:32:33;;;;;;;3.15;1.20;;;;;;;0.40;72.17;95094.16;5040300;28;20427;-63
2021/12/10 11:35:06;;;;;;;1.58;1.00;;;;;;;0.29;73.48;95093.19;5043299;28;20450;-63
2021/12/10 11:37:51;;;;;;;3.60;1.20;;;;;;;0.09;74.84;95097.13;5054986;28;20037;-64
2021/12/10 11:40:25;;;;;;;2.30;1.15;;;;;;;-0.01;76.37;95095.91;5046180;28;20095;-61
2021/12/10 11:42:58;;;;;;;4.97;1.23;;;;;;;-0.21;78.06;95087.59;5042971;28;20048;-58
2021/12/10 11:45:51;;;;;;;2.75;1.00;;;;;;;-0.24;78.81;95094.19;5042798;28;20075;-59
2021/12/10 11:48:25;;;;;;;3.13;1.30;;;;;;;-0.09;80.86;95090.19;5041357;28;20037;-58
2021/12/10 11:51:03;;;;;;;1.98;1.05;;;;;;;-0.09;81.04;95085.69;5040206;28;20041;-59
2021/12/10 11:53:38;;;;;;;2.50;1.20;;;;;;;-0.12;81.67;95082.69;5041360;28;20705;-58
2021/12/10 11:56:13;;;;;;;2.47;0.93;;;;;;;-0.17;82.35;95080.75;5039175;28;20050;-58
2021/12/10 11:58:40;;;;;;;4.25;1.85;;;;;;;-0.25;82.14;95089.13;5039832;28;20049;-58